• Join FlightAware (Why Join?)
  • Login
  • US Flag 
09:06PM EDT


 

Airport Tracker/Info


-or-


 

Live Flight TrackerFlight Track Log ✈ WIG7413 ✈ 11-Jul-2013 ✈ KALB - KEWR

Flight Track Log - Related Links

Times and Time Zones

All times are in EDT time to prevent confusion due to time zone crossing. See the WIG7413 flight status page for this flight to view local times or setup timezone preferences in your user account.

Time Position Orientation Groundspeed Altitude Reporting Facility
EDT Latitude Longitude Course Direction KTS MPH feet Rate Location/Type
10:21PM 42.7611 -73.8061 359° North 92 106 900  Level Boston Center
10:21PM 42.7736 -73.8064 359° North 90 104 1,400 780 Climbing Boston Center
10:22PM 42.7822 -73.7808 65° Northeast 108 124 2,100 660 Climbing Boston Center
10:23PM 42.7722 -73.7356 107° East 135 155 2,800 660 Climbing Boston Center
10:24PM 42.7350 -73.7264 170° South 155 178 3,500 720 Climbing Boston Center
10:25PM 42.6972 -73.7536 208° Southwest 144 166 4,300 660 Climbing Boston Center
10:26PM 42.6656 -73.7814 213° Southwest 140 161 4,900 600 Climbing Boston Center
10:27PM 42.6297 -73.8172 216° Southwest 142 163 5,600 660 Climbing Boston Center
10:28PM 42.5981 -73.8447 213° Southwest 136 157 6,400 780 Climbing Boston Center
10:29PM 42.5664 -73.8750 215° Southwest 133 153 7,200 720 Climbing Boston Center
10:30PM 42.5369 -73.8997 212° Southwest 134 154 7,900 360 Climbing Boston Center
10:31PM 42.5011 -73.9325 214° Southwest 145 167 8,000  Climbing Boston Center
10:32PM 42.4611 -73.9656 211° Southwest 168 193 8,000  Level Boston Center
10:33PM 42.4294 -73.9983 217° Southwest 157 181 8,000  Level Boston Center
10:34PM 42.3914 -74.0311 212° Southwest 151 174 8,000  Level Boston Center
10:35PM 42.3703 -74.0503 214° Southwest 155 178 8,000  Level Boston Center
10:36PM 42.3300 -74.0858 213° Southwest 155 178 8,100  Climbing Boston Center
10:37PM 42.2961 -74.1242 220° Southwest 161 185 8,100  Level Boston Center
10:38PM 42.2644 -74.1542 215° Southwest 161 185 8,100  Level Boston Center
10:39PM 42.2264 -74.1869 213° Southwest 155 178 8,100  Level Boston Center
10:40PM 42.1908 -74.2083 204° Southwest 155 178 8,100  Level Boston Center
10:41PM 42.1467 -74.2294 200° South 155 178 8,100  Level Boston Center
10:42PM 42.1108 -74.2481 201° Southwest 155 178 8,100 -120 Level Boston Center
10:43PM 42.0689 -74.2692 200° South 155 178 7,900 -300 Descending Boston Center
10:44PM 42.0311 -74.2903 203° Southwest 155 178 7,500 -420 Descending Boston Center
10:45PM 41.9847 -74.3114 199° South 160 184 7,100 -300 Descending Boston Center
10:46PM 41.9469 -74.3297 200° South 165 190 7,000 -60 Descending Boston Center
10:47PM 41.9028 -74.3508 200° South 159 183 7,000  Level Boston Center
10:48PM 41.8567 -74.3717 199° South 152 175 7,000  Level Boston Center
10:49PM 41.8167 -74.3928 201° Southwest 157 181 7,000  Level Boston Center
10:50PM 41.7789 -74.4111 200° South 151 174 7,000  Level Boston Center
10:51PM 41.7408 -74.4322 202° Southwest 151 174 7,000  Level Boston Center
10:52PM 41.7011 -74.4503 199° South 151 174 7,000  Level Boston Center
10:53PM 41.6631 -74.4686 200° South 151 174 7,000  Level Boston Center
10:54PM 41.6233 -74.4869 199° South 151 174 7,000 -180 Level Boston Center
10:55PM 41.5894 -74.5053 202° Southwest 157 181 6,700 -420 Descending Boston Center
10:56PM 41.5433 -74.5286 201° Southwest 157 181 6,200 -240 Descending Boston Center
10:59PM 41.4500 -74.5667 197° South 155 178 6,000 -60 Descending New York TRACON
11:00PM 41.4000 -74.6000 207° Southwest 150 173 6,000  Level New York TRACON
11:01PM 41.3667 -74.6167 201° Southwest 150 173 6,000  Level New York TRACON
11:02PM 41.3167 -74.6333 194° South 152 175 6,000  Level New York TRACON
11:03PM 41.2833 -74.6333 180° South 144 166 6,000  Level New York TRACON
11:04PM 41.2500 -74.6500 201° Southwest 143 165 6,000  Level New York TRACON
11:05PM 41.2000 -74.6667 194° South 150 173 6,000 -240 Level New York TRACON
11:06PM 41.1667 -74.6667 180° South 163 188 5,600 -420 Descending New York TRACON
11:07PM 41.1167 -74.6667 180° South 169 194 5,300 -300 Descending New York TRACON
11:08PM 41.0667 -74.6667 180° South 168 193 5,000 -180 Descending New York TRACON
11:09PM 41.0333 -74.6500 159° South 159 183 5,000  Level New York TRACON
11:10PM 40.9833 -74.6500 180° South 155 178 5,000  Level New York TRACON
11:11PM 40.9333 -74.6333 166° South 155 178 5,000  Level New York TRACON
11:12PM 40.9000 -74.6167 159° South 159 183 5,000  Level New York TRACON
11:13PM 40.8500 -74.5833 153° Southeast 156 180 5,000  Level New York TRACON
11:14PM 40.8167 -74.5667 159° South 154 177 5,000  Level New York TRACON
11:15PM 40.7833 -74.5500 159° South 155 178 5,000  Level New York TRACON
11:16PM 40.7500 -74.5333 159° South 156 180 5,000  Level New York TRACON
11:17PM 40.7000 -74.5167 166° South 155 178 5,000  Level New York TRACON
11:18PM 40.6667 -74.4833 143° Southeast 154 177 5,000 -60 Level New York TRACON
11:19PM 40.6167 -74.4667 166° South 153 176 4,900 -240 Descending New York TRACON
11:20PM 40.5833 -74.4500 159° South 164 189 4,600 -420 Descending New York TRACON
11:21PM 40.5500 -74.4167 143° Southeast 169 194 4,200 -360 Descending New York TRACON
11:22PM 40.5167 -74.3667 131° Southeast 155 178 4,000 -120 Descending New York TRACON
11:23PM 40.5167 -74.3167 90° East 151 174 4,000 -300 Level New York TRACON
11:24PM 40.5167 -74.2667 90° East 162 186 3,400 -600 Descending New York TRACON
11:25PM 40.5500 -74.2500 21° North 146 168 2,900 -600 Descending New York TRACON
11:26PM 40.5833 -74.2333 21° North 148 170 2,200 -840 Descending New York TRACON
11:26PM 40.6167 -74.2167 21° North 132 152 1,400 -840 Descending New York TRACON
11:28PM 40.6500 -74.1833 37° Northeast 118 136 600 -780 Descending New York TRACON
11:30PM 40.6833 -74.1667 21° North  Level FlightAware Approximate